createdAt,value
2019-02-20T00:00:26.180Z,24.20
2019-02-20T00:02:54.758Z,24.20
2019-02-20T00:05:23.374Z,24.20
2019-02-20T00:07:51.828Z,24.20
2019-02-20T00:10:20.410Z,24.20
2019-02-20T00:12:48.997Z,24.20
2019-02-20T00:15:17.539Z,24.20
2019-02-20T00:17:46.456Z,24.10
2019-02-20T00:20:14.911Z,24.10
2019-02-20T00:22:43.370Z,24.10
2019-02-20T00:25:11.899Z,24.10
2019-02-20T00:27:40.398Z,24.10
2019-02-20T00:30:10.667Z,24.00
2019-02-20T00:32:39.128Z,24.10
2019-02-20T00:35:07.614Z,24.00
2019-02-20T00:37:36.088Z,24.00
2019-02-20T00:40:07.807Z,24.00
2019-02-20T00:42:36.332Z,23.90
2019-02-20T00:45:17.961Z,23.90
2019-02-20T00:47:48.074Z,23.90
2019-02-20T00:50:17.132Z,23.90
2019-02-20T00:52:49.782Z,23.90
2019-02-20T00:55:17.441Z,23.90
2019-02-20T00:57:45.905Z,23.90
2019-02-20T01:00:15.719Z,23.90
2019-02-20T01:02:44.328Z,23.90
2019-02-20T01:05:12.788Z,23.90
2019-02-20T01:07:41.270Z,23.90
2019-02-20T01:10:09.763Z,23.90
2019-02-20T01:12:38.299Z,23.90
2019-02-20T01:15:11.197Z,23.90
2019-02-20T01:17:41.519Z,23.90
2019-02-20T01:20:10.511Z,23.90
2019-02-20T01:22:38.975Z,23.90
2019-02-20T01:25:07.604Z,23.80
2019-02-20T01:27:36.109Z,23.90
2019-02-20T01:30:07.509Z,23.80
2019-02-20T01:32:35.968Z,23.80
2019-02-20T01:35:04.782Z,23.80
2019-02-20T01:37:33.333Z,23.80
2019-02-20T01:40:01.807Z,23.80
2019-02-20T01:42:30.276Z,23.80
2019-02-20T01:44:58.774Z,23.80
2019-02-20T01:47:27.591Z,23.80
2019-02-20T01:49:56.056Z,23.80
2019-02-20T01:52:24.586Z,23.80
2019-02-20T01:54:53.062Z,23.80
2019-02-20T01:57:21.577Z,23.70
2019-02-20T01:59:50.036Z,23.70
2019-02-20T02:02:18.485Z,23.70
2019-02-20T02:04:46.983Z,23.60
2019-02-20T02:07:15.448Z,23.60
2019-02-20T02:09:43.978Z,23.60
2019-02-20T02:12:12.436Z,23.60
2019-02-20T02:14:40.933Z,23.60
2019-02-20T02:17:09.761Z,23.50
2019-02-20T02:19:38.228Z,23.50
2019-02-20T02:22:06.693Z,23.50
2019-02-20T02:24:35.262Z,23.50
2019-02-20T02:27:03.723Z,23.50
2019-02-20T02:29:32.207Z,23.50
2019-02-20T02:32:00.711Z,23.50
2019-02-20T02:34:29.182Z,23.50
2019-02-20T02:36:57.676Z,23.50
2019-02-20T02:39:26.216Z,23.50
2019-02-20T02:41:54.775Z,23.50
2019-02-20T02:44:23.338Z,23.50
2019-02-20T02:46:52.029Z,23.50
2019-02-20T02:49:21.478Z,23.50
2019-02-20T02:51:50.198Z,23.50
2019-02-20T02:54:18.676Z,23.50
2019-02-20T02:56:47.316Z,23.60
2019-02-20T02:59:15.810Z,23.50
2019-02-20T03:01:44.478Z,23.50
2019-02-20T03:04:13.170Z,23.60
2019-02-20T03:06:41.852Z,23.60
2019-02-20T03:09:10.336Z,23.60
2019-02-20T03:11:38.972Z,23.60
2019-02-20T03:14:07.508Z,23.60
2019-02-20T03:16:35.967Z,23.60
2019-02-20T03:19:04.501Z,23.60
2019-02-20T03:21:32.975Z,23.50
2019-02-20T03:24:02.572Z,23.50
2019-02-20T03:26:31.175Z,23.50
2019-02-20T03:28:59.668Z,23.50
2019-02-20T03:31:28.575Z,23.50
2019-02-20T03:33:57.134Z,23.50
2019-02-20T03:36:26.662Z,23.40
2019-02-20T03:38:55.555Z,23.40
2019-02-20T03:41:24.330Z,23.40
2019-02-20T03:43:52.945Z,23.40
2019-02-20T03:46:21.612Z,23.40
2019-02-20T03:48:51.901Z,23.40
2019-02-20T03:51:20.381Z,23.40
2019-02-20T03:53:51.943Z,23.40
2019-02-20T03:56:18.987Z,23.40
2019-02-20T03:58:47.509Z,23.40
2019-02-20T04:01:15.992Z,23.40
2019-02-20T04:03:45.780Z,23.40
2019-02-20T04:06:14.488Z,23.30
2019-02-20T04:08:43.143Z,23.30
2019-02-20T04:11:11.728Z,23.30
2019-02-20T04:13:40.303Z,23.40
2019-02-20T04:16:08.888Z,23.30
2019-02-20T04:18:37.909Z,23.30
2019-02-20T04:21:06.593Z,23.30
2019-02-20T04:23:35.048Z,23.30
2019-02-20T04:26:03.662Z,23.30
2019-02-20T04:28:32.314Z,23.30
2019-02-20T04:31:01.031Z,23.30
2019-02-20T04:33:31.664Z,23.30
2019-02-20T04:35:59.908Z,23.30
2019-02-20T04:38:28.622Z,23.30
2019-02-20T04:40:57.227Z,23.30
2019-02-20T04:43:25.757Z,23.30
2019-02-20T04:45:54.360Z,23.30
2019-02-20T04:48:22.934Z,23.30
2019-02-20T04:50:51.414Z,23.30
2019-02-20T04:53:20.068Z,23.30
2019-02-20T04:55:48.814Z,23.30
2019-02-20T04:58:19.142Z,23.30
2019-02-20T05:00:47.584Z,23.30
2019-02-20T05:03:17.181Z,23.30
2019-02-20T05:05:46.014Z,23.30
2019-02-20T05:08:15.773Z,23.30
2019-02-20T05:10:44.681Z,23.30
2019-02-20T05:13:13.298Z,23.30
2019-02-20T05:15:41.851Z,23.30
2019-02-20T05:18:10.434Z,23.20
2019-02-20T05:20:39.336Z,23.30
2019-02-20T05:23:09.668Z,23.20
2019-02-20T05:25:39.100Z,23.30
2019-02-20T05:28:07.873Z,23.20
2019-02-20T05:30:39.798Z,23.20
2019-02-20T05:33:09.332Z,23.30
2019-02-20T05:35:37.886Z,23.20
2019-02-20T05:38:06.910Z,23.30
2019-02-20T05:40:35.601Z,23.20
2019-02-20T05:43:04.158Z,23.30
2019-02-20T05:45:33.034Z,23.30
2019-02-20T05:48:01.502Z,23.20
2019-02-20T05:50:30.073Z,23.20
2019-02-20T05:52:58.613Z,23.20
2019-02-20T05:55:27.612Z,23.20
2019-02-20T05:57:56.133Z,23.20
2019-02-20T06:00:24.669Z,23.20
2019-02-20T06:02:53.129Z,23.30
2019-02-20T06:05:21.628Z,23.20
2019-02-20T06:07:50.106Z,23.20
2019-02-20T06:10:18.621Z,23.20
2019-02-20T06:12:47.100Z,23.20
2019-02-20T06:15:15.577Z,23.20
2019-02-20T06:17:44.087Z,23.20
2019-02-20T06:20:12.983Z,23.20
2019-02-20T06:22:41.474Z,23.20
2019-02-20T06:25:10.053Z,23.20
2019-02-20T06:27:38.494Z,23.20
2019-02-20T06:30:10.146Z,23.20
2019-02-20T06:32:39.104Z,23.20
2019-02-20T06:35:07.788Z,23.20
2019-02-20T06:37:36.334Z,23.20
2019-02-20T06:40:07.578Z,23.20
2019-02-20T06:42:36.199Z,23.20
2019-02-20T06:45:07.696Z,23.20
2019-02-20T06:47:36.304Z,23.20
2019-02-20T06:50:07.391Z,23.20
2019-02-20T06:52:35.863Z,23.20
2019-02-20T06:55:06.978Z,23.20
2019-02-20T06:57:35.428Z,23.20
2019-02-20T07:00:04.679Z,23.20
2019-02-20T07:02:33.191Z,23.20
2019-02-20T07:05:30.513Z,23.20
2019-02-20T07:08:18.746Z,23.20
2019-02-20T07:11:09.483Z,23.20
2019-02-20T07:13:41.265Z,23.20
2019-02-20T07:16:15.592Z,23.20
2019-02-20T07:18:50.198Z,23.20
2019-02-20T07:21:40.390Z,23.20
2019-02-20T07:24:12.453Z,23.20
2019-02-20T07:26:52.877Z,23.20
2019-02-20T07:29:27.618Z,23.20
2019-02-20T07:31:56.079Z,23.20
2019-02-20T07:34:24.537Z,23.20
2019-02-20T07:36:53.061Z,23.20
2019-02-20T07:39:21.522Z,23.20
2019-02-20T07:41:50.131Z,23.30
2019-02-20T07:44:18.595Z,23.20
2019-02-20T07:46:47.056Z,23.20
2019-02-20T07:49:15.549Z,23.20
2019-02-20T07:51:44.199Z,23.20
2019-02-20T07:54:12.665Z,23.20
2019-02-20T07:56:41.180Z,23.20
2019-02-20T07:59:09.665Z,23.20
2019-02-20T08:01:38.272Z,23.20
2019-02-20T08:04:06.786Z,23.20
2019-02-20T08:06:35.345Z,23.20
2019-02-20T08:09:06.047Z,23.20
2019-02-20T08:11:34.970Z,23.30
2019-02-20T08:14:03.584Z,23.30
2019-02-20T08:16:32.057Z,23.30
2019-02-20T08:19:01.892Z,23.30
2019-02-20T08:21:30.658Z,23.30
2019-02-20T08:23:59.188Z,23.30
2019-02-20T08:26:27.757Z,23.30
2019-02-20T08:28:56.819Z,23.30
2019-02-20T08:31:25.291Z,23.30
2019-02-20T08:33:53.795Z,23.20
2019-02-20T08:36:22.282Z,23.30
2019-02-20T08:38:50.755Z,23.20
2019-02-20T08:41:19.271Z,23.30
2019-02-20T08:43:47.747Z,23.20
2019-02-20T08:46:16.219Z,23.20
2019-02-20T08:48:44.744Z,23.20
2019-02-20T08:51:13.242Z,23.20
2019-02-20T08:53:41.726Z,23.20
2019-02-20T08:56:10.204Z,23.20
2019-02-20T08:58:38.789Z,23.20
2019-02-20T09:01:07.382Z,23.20
2019-02-20T09:03:35.865Z,23.20
2019-02-20T09:06:04.362Z,23.20
2019-02-20T09:08:32.853Z,23.20
2019-02-20T09:11:01.465Z,23.20
2019-02-20T09:13:29.925Z,23.20
2019-02-20T09:15:58.468Z,23.20
2019-02-20T09:18:27.014Z,23.20
2019-02-20T09:20:55.472Z,23.20
2019-02-20T09:23:24.495Z,23.20
2019-02-20T09:25:52.972Z,23.20
2019-02-20T09:28:21.623Z,23.20
2019-02-20T09:30:50.077Z,23.20
2019-02-20T09:33:18.592Z,23.20
2019-02-20T09:35:47.076Z,23.20
2019-02-20T09:38:15.599Z,23.20
2019-02-20T09:40:44.081Z,23.20
2019-02-20T09:43:14.122Z,23.20
2019-02-20T09:45:44.506Z,23.20
2019-02-20T09:48:12.781Z,23.20
2019-02-20T09:50:41.268Z,23.20
2019-02-20T09:53:09.752Z,23.20
2019-02-20T09:55:38.576Z,23.20
2019-02-20T09:58:07.134Z,23.20
2019-02-20T10:00:35.945Z,23.20
2019-02-20T10:03:04.631Z,23.20
2019-02-20T10:05:33.055Z,23.20
2019-02-20T10:08:01.668Z,23.20
2019-02-20T10:10:30.482Z,23.20
2019-02-20T10:12:59.071Z,23.20
2019-02-20T10:15:27.540Z,23.20
2019-02-20T10:17:56.050Z,23.20
2019-02-20T10:20:24.515Z,23.20
2019-02-20T10:22:53.195Z,23.20
2019-02-20T10:25:21.654Z,23.20
2019-02-20T10:27:50.160Z,23.20
2019-02-20T10:30:21.973Z,23.20
2019-02-20T10:32:50.472Z,23.20
2019-02-20T10:35:18.979Z,23.20
2019-02-20T10:37:47.451Z,23.20
2019-02-20T10:40:15.968Z,23.20
2019-02-20T10:42:44.446Z,23.20
2019-02-20T10:45:13.655Z,23.20
2019-02-20T10:47:42.260Z,23.20
2019-02-20T10:50:12.380Z,23.20
2019-02-20T10:52:40.864Z,23.20
2019-02-20T10:55:10.170Z,23.20
2019-02-20T10:57:39.099Z,23.20
2019-02-20T11:00:23.143Z,23.20
2019-02-20T11:02:42.923Z,23.20
2019-02-20T11:05:11.610Z,23.20
2019-02-20T11:07:40.030Z,23.20
2019-02-20T11:10:09.475Z,23.20
2019-02-20T11:12:38.009Z,23.20
2019-02-20T11:15:08.016Z,23.30
2019-02-20T11:17:37.255Z,23.20
2019-02-20T11:20:09.367Z,23.30
2019-02-20T11:22:39.721Z,23.30
2019-02-20T11:25:10.704Z,23.30
2019-02-20T11:27:39.626Z,23.30
2019-02-20T11:30:25.651Z,23.30
2019-02-20T11:32:54.260Z,23.30
2019-02-20T11:35:22.703Z,23.30
2019-02-20T11:37:51.179Z,23.30
2019-02-20T11:40:19.768Z,23.30
2019-02-20T11:42:48.302Z,23.30
2019-02-20T11:45:17.747Z,23.30
2019-02-20T11:47:46.277Z,23.30
2019-02-20T11:50:14.754Z,23.30
2019-02-20T11:52:43.264Z,23.30
2019-02-20T11:55:14.044Z,23.30
2019-02-20T11:57:42.524Z,23.30
2019-02-20T12:00:15.957Z,23.40
2019-02-20T12:02:44.611Z,23.40
2019-02-20T12:05:13.377Z,23.40
2019-02-20T12:07:41.862Z,23.40
2019-02-20T12:10:13.075Z,23.50
2019-02-20T12:12:41.704Z,23.40
2019-02-20T12:15:10.423Z,23.50
2019-02-20T12:17:39.038Z,23.50
2019-02-20T12:20:09.181Z,23.60
2019-02-20T12:22:37.807Z,23.60
2019-02-20T12:25:08.140Z,23.60
2019-02-20T12:27:36.670Z,23.60
2019-02-20T12:30:12.760Z,23.60
2019-02-20T12:32:41.264Z,23.70
2019-02-20T12:35:09.820Z,23.90
2019-02-20T12:37:38.419Z,24.00
2019-02-20T12:40:09.140Z,24.00
2019-02-20T12:42:37.879Z,24.00
2019-02-20T12:45:11.605Z,24.00
2019-02-20T12:47:40.194Z,24.00
2019-02-20T12:50:14.057Z,24.00
2019-02-20T12:52:42.629Z,24.00
2019-02-20T12:55:11.414Z,23.90
2019-02-20T12:57:40.060Z,23.90
2019-02-20T13:00:11.585Z,24.00
2019-02-20T13:02:40.186Z,24.00
2019-02-20T13:05:09.034Z,24.00
2019-02-20T13:07:37.566Z,23.90
2019-02-20T13:10:07.636Z,23.90
2019-02-20T13:12:36.204Z,23.90
2019-02-20T13:15:07.647Z,23.90
2019-02-20T13:17:36.324Z,24.00
2019-02-20T13:20:06.738Z,24.10
2019-02-20T13:22:35.241Z,24.10
2019-02-20T13:25:04.209Z,24.20
2019-02-20T13:27:32.913Z,24.40
2019-02-20T13:30:01.431Z,24.50
2019-02-20T13:32:30.384Z,24.50
2019-02-20T13:34:58.962Z,24.40
2019-02-20T13:37:27.534Z,24.40
2019-02-20T13:39:56.595Z,24.40
2019-02-20T13:42:25.166Z,24.40
2019-02-20T13:44:53.940Z,24.30
2019-02-20T13:47:22.827Z,24.30
2019-02-20T13:49:51.567Z,24.30
2019-02-20T13:52:20.015Z,24.20
2019-02-20T13:54:48.581Z,24.20
2019-02-20T13:57:17.484Z,24.20
2019-02-20T13:59:46.048Z,24.20
2019-02-20T14:02:14.507Z,24.20
2019-02-20T14:04:43.019Z,24.20
2019-02-20T14:07:11.637Z,24.10
2019-02-20T14:09:40.221Z,24.10
2019-02-20T14:12:08.713Z,24.20
2019-02-20T14:14:37.481Z,24.10
2019-02-20T14:17:06.169Z,24.10
2019-02-20T14:19:34.841Z,24.10
2019-02-20T14:22:03.802Z,24.10
2019-02-20T14:24:32.297Z,24.10
2019-02-20T14:27:00.923Z,24.00
2019-02-20T14:29:29.531Z,24.00
2019-02-20T14:31:58.039Z,24.00
2019-02-20T14:34:26.652Z,24.00
2019-02-20T14:36:55.229Z,24.00
2019-02-20T14:39:23.829Z,24.00
2019-02-20T14:41:52.298Z,24.00
2019-02-20T14:44:20.833Z,24.00
2019-02-20T14:46:49.912Z,24.00
2019-02-20T14:49:18.521Z,24.00
2019-02-20T14:51:47.010Z,24.00
2019-02-20T14:54:15.482Z,24.00
2019-02-20T14:56:43.976Z,24.00
2019-02-20T14:59:12.497Z,24.00
2019-02-20T15:01:41.017Z,24.00
2019-02-20T15:04:09.970Z,24.00
2019-02-20T15:06:38.465Z,24.00
2019-02-20T15:09:07.016Z,23.90
2019-02-20T15:11:35.520Z,24.00
2019-02-20T15:14:04.052Z,23.90
2019-02-20T15:16:32.564Z,23.90
2019-02-20T15:19:01.200Z,23.90
2019-02-20T15:21:29.652Z,23.90
2019-02-20T15:23:58.161Z,23.90
2019-02-20T15:26:26.689Z,23.90
2019-02-20T15:28:55.281Z,23.90
2019-02-20T15:31:32.933Z,23.90
2019-02-20T15:33:55.516Z,23.90
2019-02-20T15:36:24.540Z,23.90
2019-02-20T15:38:53.012Z,23.90
2019-02-20T15:41:21.526Z,23.90
2019-02-20T15:43:51.529Z,23.80
2019-02-20T15:46:20.152Z,23.80
2019-02-20T15:48:48.657Z,23.80
2019-02-20T15:51:17.179Z,23.80
2019-02-20T15:53:45.761Z,23.80
2019-02-20T15:56:14.357Z,23.80
2019-02-20T15:58:42.862Z,23.80
2019-02-20T16:01:11.645Z,23.80
2019-02-20T16:03:40.350Z,23.80
2019-02-20T16:06:08.864Z,23.80
2019-02-20T16:08:37.698Z,23.80
2019-02-20T16:11:06.168Z,23.70
2019-02-20T16:13:34.678Z,23.70
2019-02-20T16:16:03.248Z,23.70
2019-02-20T16:18:31.725Z,23.70
2019-02-20T16:21:00.618Z,23.70
2019-02-20T16:23:29.066Z,23.70
2019-02-20T16:25:58.232Z,23.70
2019-02-20T16:28:33.561Z,23.70
2019-02-20T16:30:56.916Z,23.70
2019-02-20T16:33:25.402Z,23.70
2019-02-20T16:35:53.931Z,23.70
2019-02-20T16:38:22.491Z,23.60
2019-02-20T16:40:51.007Z,23.60
2019-02-20T16:43:19.955Z,23.60
2019-02-20T16:45:48.902Z,23.70
2019-02-20T16:48:17.373Z,23.60
2019-02-20T16:50:45.972Z,23.60
2019-02-20T16:53:14.434Z,23.60
2019-02-20T16:55:42.946Z,23.60
2019-02-20T16:58:11.480Z,23.60
2019-02-20T17:00:39.963Z,23.60
2019-02-20T17:03:11.730Z,23.60
2019-02-20T17:05:40.219Z,23.60
2019-02-20T17:08:08.783Z,23.60
2019-02-20T17:10:37.289Z,23.60
2019-02-20T17:13:05.875Z,23.60
2019-02-20T17:15:34.699Z,23.60
2019-02-20T17:18:03.297Z,23.70
2019-02-20T17:20:31.826Z,23.70
2019-02-20T17:23:00.331Z,23.70
2019-02-20T17:25:28.812Z,23.70
2019-02-20T17:28:05.568Z,23.80
2019-02-20T17:30:27.554Z,23.80
2019-02-20T17:32:56.051Z,23.80
2019-02-20T17:35:24.556Z,23.90
2019-02-20T17:37:53.072Z,23.90
2019-02-20T17:40:21.566Z,23.90
2019-02-20T17:42:50.052Z,23.90
2019-02-20T17:45:19.286Z,24.00
2019-02-20T17:47:48.570Z,24.00
2019-02-20T17:50:22.511Z,24.00
2019-02-20T17:52:51.032Z,24.00
2019-02-20T17:55:19.492Z,24.00
2019-02-20T17:57:48.374Z,24.00
2019-02-20T18:00:19.222Z,24.00
2019-02-20T18:02:48.117Z,24.00
2019-02-20T18:05:16.603Z,24.00
2019-02-20T18:07:49.805Z,24.00
2019-02-20T18:10:15.231Z,24.00
2019-02-20T18:12:43.875Z,24.00
2019-02-20T18:15:13.649Z,24.00
2019-02-20T18:17:42.261Z,24.00
2019-02-20T18:20:11.486Z,24.00
2019-02-20T18:22:40.015Z,24.00
2019-02-20T18:25:10.254Z,24.00
2019-02-20T18:27:38.841Z,24.00
2019-02-20T18:30:12.837Z,24.00
2019-02-20T18:32:41.471Z,24.00
2019-02-20T18:35:12.450Z,24.00
2019-02-20T18:37:41.161Z,24.00
2019-02-20T18:40:12.101Z,24.00
2019-02-20T18:42:40.660Z,24.00
2019-02-20T18:45:11.550Z,24.00
2019-02-20T18:47:40.094Z,24.00
2019-02-20T18:50:11.253Z,24.10
2019-02-20T18:52:39.740Z,24.00
2019-02-20T18:55:14.646Z,24.30
2019-02-20T18:57:43.192Z,25.50
2019-02-20T19:00:21.435Z,25.70
2019-02-20T19:02:50.231Z,25.20
2019-02-20T19:05:19.397Z,24.90
2019-02-20T19:07:48.090Z,24.70
2019-02-20T19:10:37.746Z,24.60
2019-02-20T19:13:18.641Z,24.50
2019-02-20T19:15:53.324Z,24.50
2019-02-20T19:18:47.814Z,24.40
2019-02-20T19:21:36.430Z,24.40
2019-02-20T19:24:20.492Z,24.30
2019-02-20T19:26:55.221Z,24.30
2019-02-20T19:29:43.600Z,24.30
2019-02-20T19:32:30.434Z,24.30
2019-02-20T19:35:28.028Z,24.20
2019-02-20T19:38:23.597Z,24.20
2019-02-20T19:41:07.393Z,24.20
2019-02-20T19:43:41.935Z,24.20
2019-02-20T19:46:22.044Z,24.20
2019-02-20T19:48:59.597Z,24.20
2019-02-20T19:51:34.251Z,24.10
2019-02-20T19:54:18.303Z,24.20
2019-02-20T19:56:59.298Z,24.10
2019-02-20T19:59:37.093Z,24.10
2019-02-20T20:02:27.823Z,24.10
2019-02-20T20:05:19.320Z,24.10
2019-02-20T20:08:07.541Z,24.10
2019-02-20T20:10:50.604Z,24.10
2019-02-20T20:13:25.094Z,24.10
2019-02-20T20:16:05.941Z,24.10
2019-02-20T20:18:43.478Z,24.10
2019-02-20T20:21:20.913Z,24.10
2019-02-20T20:24:01.710Z,24.10
2019-02-20T20:27:03.837Z,24.10
2019-02-20T20:29:39.964Z,24.10
2019-02-20T20:32:33.850Z,24.00
2019-02-20T20:35:31.456Z,23.90
2019-02-20T20:38:11.915Z,23.90
2019-02-20T20:41:03.403Z,23.90
2019-02-20T20:43:35.132Z,23.90
2019-02-20T20:46:12.950Z,24.00
2019-02-20T20:49:01.307Z,24.00
2019-02-20T20:51:38.597Z,24.00
2019-02-20T20:54:26.661Z,24.00
2019-02-20T20:57:13.609Z,24.00
2019-02-20T20:59:48.130Z,24.00
2019-02-20T21:02:22.695Z,24.00
2019-02-20T21:04:57.482Z,24.00
2019-02-20T21:07:56.613Z,24.00
2019-02-20T21:10:46.651Z,24.00
2019-02-20T21:13:35.112Z,24.00
2019-02-20T21:16:28.113Z,24.00
2019-02-20T21:19:08.809Z,24.00
2019-02-20T21:21:43.116Z,24.00
2019-02-20T21:24:26.927Z,24.00
2019-02-20T21:27:29.122Z,24.00
2019-02-20T21:30:00.886Z,24.00
2019-02-20T21:32:52.205Z,24.00
2019-02-20T21:35:29.752Z,24.00
2019-02-20T21:38:04.170Z,24.00
2019-02-20T21:40:39.501Z,24.00
2019-02-20T21:43:41.440Z,24.00
2019-02-20T21:46:32.651Z,24.00
2019-02-20T21:49:24.680Z,23.90
2019-02-20T21:52:16.090Z,23.90
2019-02-20T21:55:21.272Z,23.90
2019-02-20T21:58:01.553Z,23.90
2019-02-20T22:00:38.992Z,24.00
2019-02-20T22:03:10.784Z,24.00
2019-02-20T22:05:42.552Z,24.00
2019-02-20T22:08:32.543Z,24.00
2019-02-20T22:11:24.393Z,24.00
2019-02-20T22:14:19.215Z,24.00
2019-02-20T22:17:18.302Z,24.00
2019-02-20T22:19:56.168Z,24.00
2019-02-20T22:22:36.961Z,24.00
2019-02-20T22:25:29.776Z,24.00
2019-02-20T22:28:01.577Z,24.00
2019-02-20T22:30:45.012Z,24.00
2019-02-20T22:33:25.402Z,24.00
2019-02-20T22:35:59.542Z,24.00
2019-02-20T22:38:36.968Z,24.00
2019-02-20T22:41:20.550Z,24.00
2019-02-20T22:44:03.824Z,24.00
2019-02-20T22:46:38.256Z,24.00
2019-02-20T22:49:29.205Z,24.00
2019-02-20T22:52:12.643Z,24.00
2019-02-20T22:54:53.205Z,24.00
2019-02-20T22:57:37.143Z,24.00
2019-02-20T23:00:52.315Z,24.00
2019-02-20T23:03:58.680Z,24.00
2019-02-20T23:06:53.127Z,24.00
2019-02-20T23:09:47.751Z,24.00
2019-02-20T23:12:37.335Z,24.00
2019-02-20T23:15:06.636Z,24.00
2019-02-20T23:17:35.146Z,24.00
2019-02-20T23:20:03.944Z,24.00
2019-02-20T23:22:32.537Z,24.00
2019-02-20T23:25:01.156Z,24.00
2019-02-20T23:27:29.697Z,24.00
2019-02-20T23:29:58.239Z,24.20
2019-02-20T23:32:26.796Z,24.30
2019-02-20T23:34:57.141Z,24.30
2019-02-20T23:37:28.726Z,24.20
2019-02-20T23:39:57.193Z,24.20
2019-02-20T23:42:25.709Z,24.20
2019-02-20T23:44:54.178Z,24.20
2019-02-20T23:47:22.644Z,24.20
2019-02-20T23:49:51.305Z,24.20
2019-02-20T23:52:19.848Z,24.20
2019-02-20T23:54:48.348Z,24.20
2019-02-20T23:57:19.956Z,24.20
2019-02-20T23:59:48.412Z,24.20
